Time;durP1;ratioP1;P1;durP2;ratioP2;P2;SDS_P1;SDS_P2;PMS_P1;PMS_P2;Temp;Humidity;BMP_temperature;BMP_pressure;BME280_temperature;BME280_humidity;BME280_pressure;Samples;Min_cycle;Max_cycle;Signal;HPM_P1;HPM_P2
2023/06/03 00:01:17;;;;;;;12.32;4.65;;;12.20;79.60;;;;;;5001720;28;20037;-78
2023/06/03 00:03:44;;;;;;;14.18;4.80;;;12.20;78.00;;;;;;5022235;28;20041;-77
2023/06/03 00:06:09;;;;;;;16.45;5.35;;;12.10;81.70;;;;;;5021582;28;20422;-76
2023/06/03 00:08:35;;;;;;;11.65;4.75;;;12.00;81.60;;;;;;5025208;28;20034;-77
2023/06/03 00:11:00;;;;;;;8.18;5.07;;;12.00;82.60;;;;;;5019348;28;20492;-78
2023/06/03 00:13:26;;;;;;;10.23;5.10;;;12.00;86.00;;;;;;5016677;28;20033;-77
2023/06/03 00:15:52;;;;;;;10.55;5.35;;;12.00;87.80;;;;;;5004549;28;20033;-77
2023/06/03 00:18:17;;;;;;;11.20;5.13;;;11.90;83.40;;;;;;5006279;28;20037;-77
2023/06/03 00:20:47;;;;;;;11.48;5.70;;;11.90;85.80;;;;;;5017887;28;20022;-77
2023/06/03 00:23:15;;;;;;;18.58;6.72;;;11.80;91.10;;;;;;5005453;28;20089;-77
2023/06/03 00:25:40;;;;;;;12.68;5.82;;;11.80;91.50;;;;;;5004510;28;20056;-77
2023/06/03 00:28:06;;;;;;;10.98;4.65;;;11.80;91.20;;;;;;5022092;28;20247;-77
2023/06/03 00:30:31;;;;;;;7.65;5.20;;;11.80;91.50;;;;;;5020963;28;20188;-77
2023/06/03 00:32:57;;;;;;;10.38;5.18;;;11.80;90.90;;;;;;5001676;28;20105;-77
2023/06/03 00:35:23;;;;;;;15.57;5.13;;;11.70;92.70;;;;;;4989033;28;20087;-77
2023/06/03 00:37:48;;;;;;;9.32;4.85;;;11.60;92.30;;;;;;5021567;28;20575;-77
2023/06/03 00:40:14;;;;;;;8.95;4.88;;;11.60;93.70;;;;;;4987685;28;20060;-77
2023/06/03 00:42:39;;;;;;;13.32;5.40;;;11.60;92.50;;;;;;5003740;28;20048;-77
2023/06/03 00:45:06;;;;;;;8.23;5.22;;;11.40;90.30;;;;;;5023524;28;20049;-77
2023/06/03 00:47:31;;;;;;;13.00;5.38;;;11.40;95.20;;;;;;5021917;28;20565;-77
2023/06/03 00:49:57;;;;;;;13.40;5.70;;;11.40;96.20;;;;;;5005809;28;20032;-77
2023/06/03 00:52:23;;;;;;;11.38;5.75;;;11.50;92.40;;;;;;5019990;28;20490;-78
2023/06/03 00:54:49;;;;;;;15.95;6.53;;;11.20;92.70;;;;;;5001452;28;20051;-78
2023/06/03 00:57:15;;;;;;;15.82;5.43;;;11.30;97.00;;;;;;5017194;28;20042;-78
2023/06/03 00:59:42;;;;;;;10.50;6.00;;;11.20;92.10;;;;;;5005805;28;20056;-78
2023/06/03 01:02:07;;;;;;;12.70;5.47;;;11.20;97.20;;;;;;4986614;28;20168;-77
2023/06/03 01:04:33;;;;;;;11.57;5.65;;;11.30;96.10;;;;;;5012062;28;20046;-78
2023/06/03 01:07:27;;;;;;;8.82;5.30;;;11.20;95.80;;;;;;4996804;28;20044;-78
2023/06/03 01:10:07;;;;;;;12.93;5.93;;;11.10;93.20;;;;;;5009073;28;20056;-77
2023/06/03 01:12:57;;;;;;;13.95;6.47;;;11.10;97.00;;;;;;5022240;28;20076;-78
2023/06/03 01:15:24;;;;;;;14.13;5.93;;;11.00;96.90;;;;;;5014249;28;20500;-78
2023/06/03 01:17:51;;;;;;;11.45;6.07;;;11.00;96.80;;;;;;4999070;28;20493;-77
2023/06/03 01:20:17;;;;;;;12.60;6.18;;;11.00;98.70;;;;;;5005173;28;20037;-77
2023/06/03 01:22:44;;;;;;;14.35;5.95;;;10.90;99.90;;;;;;5001129;28;20107;-78
2023/06/03 01:25:15;;;;;;;12.30;5.75;;;10.90;99.90;;;;;;5021949;28;21175;-78
2023/06/03 01:27:41;;;;;;;13.27;6.38;;;10.80;99.90;;;;;;5021442;28;20033;-78
2023/06/03 01:30:10;;;;;;;17.30;6.13;;;10.80;99.90;;;;;;5006535;28;20566;-78
2023/06/03 01:32:37;;;;;;;11.45;6.40;;;10.80;99.90;;;;;;4999909;28;20033;-78
2023/06/03 01:35:04;;;;;;;16.05;6.40;;;10.70;99.90;;;;;;4990438;28;20030;-78
2023/06/03 01:37:30;;;;;;;15.20;6.47;;;10.80;99.90;;;;;;5005367;28;20485;-78
2023/06/03 01:39:55;;;;;;;16.95;6.85;;;10.70;99.90;;;;;;5022502;28;20405;-78
2023/06/03 01:42:21;;;;;;;15.10;5.85;;;10.80;99.90;;;;;;5005029;28;20026;-78
2023/06/03 01:44:47;;;;;;;17.30;6.72;;;10.70;99.90;;;;;;5022218;28;20353;-78
2023/06/03 01:47:12;;;;;;;15.38;6.90;;;10.60;99.90;;;;;;5009070;28;20042;-78
2023/06/03 01:49:38;;;;;;;13.38;6.07;;;10.60;99.90;;;;;;5025202;28;20038;-78
2023/06/03 01:52:04;;;;;;;19.00;6.50;;;10.60;99.90;;;;;;5021742;28;20030;-78
2023/06/03 01:54:29;;;;;;;12.75;5.95;;;10.60;99.30;;;;;;5026441;28;20061;-77
2023/06/03 01:56:55;;;;;;;13.13;6.28;;;10.50;99.80;;;;;;5007557;28;20497;-76
2023/06/03 01:59:23;;;;;;;11.43;5.95;;;10.50;99.20;;;;;;5007849;28;20040;-76
2023/06/03 02:01:58;;;;;;;14.73;7.00;;;10.40;99.90;;;;;;5006140;28;20045;-76
2023/06/03 02:04:24;;;;;;;13.52;6.45;;;10.40;99.90;;;;;;5021863;28;20536;-76
2023/06/03 02:06:53;;;;;;;18.55;6.88;;;10.50;99.90;;;;;;5021347;28;20033;-76
2023/06/03 02:09:21;;;;;;;14.90;7.43;;;10.50;99.90;;;;;;4990282;28;20052;-76
2023/06/03 02:11:49;;;;;;;19.25;7.28;;;10.40;99.90;;;;;;5019060;28;20051;-76
2023/06/03 02:14:15;;;;;;;15.50;6.95;;;10.30;99.90;;;;;;5006841;28;20069;-77
2023/06/03 02:16:40;;;;;;;9.77;6.65;;;10.30;99.90;;;;;;5025127;28;20057;-77
2023/06/03 02:19:14;;;;;;;11.05;6.75;;;10.30;99.90;;;;;;4999268;28;20482;-76
2023/06/03 02:21:41;;;;;;;20.92;7.68;;;10.20;99.90;;;;;;5007919;28;20500;-76
2023/06/03 02:24:08;;;;;;;15.00;7.45;;;10.20;99.90;;;;;;5009537;28;20037;-77
2023/06/03 02:26:34;;;;;;;21.02;7.20;;;10.20;99.90;;;;;;4992000;28;20052;-75
2023/06/03 02:29:00;;;;;;;10.63;6.20;;;10.20;99.90;;;;;;5016828;28;20037;-75
2023/06/03 02:31:25;;;;;;;14.68;6.15;;;10.10;99.90;;;;;;5003396;28;20053;-76
2023/06/03 02:33:51;;;;;;;17.63;7.43;;;10.10;99.90;;;;;;5006741;28;20084;-76
2023/06/03 02:36:18;;;;;;;12.25;6.80;;;10.10;99.90;;;;;;5023843;28;20044;-76
2023/06/03 02:38:49;;;;;;;13.23;6.45;;;10.10;99.90;;;;;;5023226;28;20112;-76
2023/06/03 02:41:15;;;;;;;16.05;7.15;;;10.00;99.90;;;;;;4991228;28;20502;-76
2023/06/03 02:43:41;;;;;;;13.45;6.70;;;10.00;99.90;;;;;;5005702;28;20045;-76
2023/06/03 02:46:07;;;;;;;13.05;7.45;;;9.90;99.90;;;;;;5008564;28;20454;-76
2023/06/03 02:48:32;;;;;;;16.20;7.25;;;10.00;99.90;;;;;;5008113;28;20084;-76
2023/06/03 02:50:58;;;;;;;15.32;7.78;;;10.00;99.90;;;;;;5024098;28;20049;-76
2023/06/03 02:53:23;;;;;;;16.92;7.32;;;9.90;99.90;;;;;;5005673;28;20038;-76
2023/06/03 02:55:49;;;;;;;15.00;8.32;;;9.80;99.90;;;;;;5023057;28;20433;-79
2023/06/03 02:58:15;;;;;;;12.80;6.60;;;9.80;99.90;;;;;;5019399;28;20554;-79
2023/06/03 03:00:41;;;;;;;15.77;6.53;;;9.90;99.90;;;;;;5024625;28;20120;-79
2023/06/03 03:03:06;;;;;;;10.15;7.07;;;9.90;99.90;;;;;;5007564;28;20573;-79
2023/06/03 03:05:32;;;;;;;12.57;7.28;;;9.90;99.90;;;;;;5024360;28;20036;-79
2023/06/03 03:07:58;;;;;;;14.60;7.28;;;9.80;99.90;;;;;;5008192;28;20038;-80
2023/06/03 03:10:25;;;;;;;13.32;6.97;;;9.80;99.90;;;;;;5004756;28;20045;-79
2023/06/03 03:12:50;;;;;;;21.42;8.80;;;9.70;99.90;;;;;;5005966;28;20080;-78
2023/06/03 03:15:16;;;;;;;15.50;7.53;;;9.70;99.90;;;;;;4992148;28;20667;-78
2023/06/03 03:17:42;;;;;;;13.90;7.05;;;9.60;99.90;;;;;;5023628;28;20036;-78
2023/06/03 03:20:07;;;;;;;17.60;7.47;;;9.60;99.90;;;;;;5023174;28;20095;-78
2023/06/03 03:22:34;;;;;;;11.20;7.35;;;9.60;99.90;;;;;;5023862;28;20041;-78
2023/06/03 03:25:00;;;;;;;15.68;7.10;;;9.60;99.90;;;;;;5023000;28;20115;-78
2023/06/03 03:27:25;;;;;;;12.95;6.53;;;9.60;99.90;;;;;;5020210;28;20038;-78
2023/06/03 03:29:55;;;;;;;14.13;7.93;;;9.60;99.90;;;;;;5023099;28;20036;-78
2023/06/03 03:32:20;;;;;;;15.88;6.60;;;9.50;99.90;;;;;;4993831;28;20042;-78
2023/06/03 03:34:57;;;;;;;11.68;7.13;;;9.50;99.90;;;;;;5020659;28;20108;-78
2023/06/03 03:37:22;;;;;;;12.13;6.65;;;9.60;99.90;;;;;;5002244;28;20037;-78
2023/06/03 03:39:48;;;;;;;19.02;6.93;;;9.60;99.90;;;;;;5002370;28;20603;-78
2023/06/03 03:42:13;;;;;;;14.55;7.18;;;9.60;99.90;;;;;;5003504;28;20504;-78
2023/06/03 03:44:39;;;;;;;13.82;7.75;;;9.50;99.90;;;;;;5003808;28;20076;-80
2023/06/03 03:47:05;;;;;;;13.82;7.68;;;9.50;99.90;;;;;;5004030;28;20045;-78
2023/06/03 03:49:31;;;;;;;14.23;6.97;;;9.50;99.90;;;;;;5007108;28;20047;-78
2023/06/03 03:52:02;;;;;;;16.80;7.25;;;9.50;99.90;;;;;;5018731;28;20029;-79
2023/06/03 03:54:27;;;;;;;12.85;7.32;;;9.50;99.90;;;;;;5004976;28;20489;-79
2023/06/03 03:56:54;;;;;;;17.05;7.40;;;9.50;99.90;;;;;;5004519;28;20036;-79
2023/06/03 03:59:20;;;;;;;15.05;6.55;;;9.60;99.90;;;;;;4989376;28;20040;-79
2023/06/03 04:01:45;;;;;;;14.25;6.85;;;9.50;99.90;;;;;;5004195;28;20746;-79
2023/06/03 04:04:11;;;;;;;10.98;6.78;;;9.50;99.90;;;;;;4989513;28;20585;-79
2023/06/03 04:06:38;;;;;;;12.73;7.15;;;9.50;99.90;;;;;;4989751;28;20041;-80
2023/06/03 04:09:07;;;;;;;16.15;6.78;;;9.60;99.90;;;;;;5019861;28;20088;-79
2023/06/03 04:11:41;;;;;;;9.00;6.63;;;9.60;99.90;;;;;;5020060;28;20056;-78
2023/06/03 04:14:08;;;;;;;11.30;6.25;;;9.70;99.90;;;;;;5003032;28;20033;-78
2023/06/03 04:16:41;;;;;;;12.55;6.53;;;9.80;99.90;;;;;;5022077;28;20033;-78
2023/06/03 04:19:09;;;;;;;13.55;5.68;;;10.00;99.90;;;;;;5017955;28;20492;-78
2023/06/03 04:21:37;;;;;;;14.80;6.40;;;10.10;99.90;;;;;;5018271;28;20187;-78
2023/06/03 04:24:04;;;;;;;10.05;6.07;;;10.40;99.90;;;;;;5006837;28;20489;-79
2023/06/03 04:26:30;;;;;;;12.23;6.10;;;10.50;99.90;;;;;;5021485;28;20497;-78
2023/06/03 04:28:56;;;;;;;10.02;5.30;;;10.70;99.90;;;;;;5020322;28;20121;-79
2023/06/03 04:31:21;;;;;;;8.75;4.78;;;10.90;99.90;;;;;;5022486;28;20037;-77
2023/06/03 04:33:48;;;;;;;9.27;5.05;;;11.00;99.90;;;;;;5006702;28;20129;-80
2023/06/03 04:36:13;;;;;;;10.18;5.50;;;11.00;99.90;;;;;;5001667;28;20045;-79
2023/06/03 04:38:41;;;;;;;10.18;5.35;;;11.30;99.90;;;;;;5020544;28;20030;-79
2023/06/03 04:41:07;;;;;;;9.18;4.55;;;11.50;99.90;;;;;;5037700;28;20561;-79
2023/06/03 04:43:35;;;;;;;9.93;5.30;;;11.70;99.90;;;;;;5022147;28;20025;-79
2023/06/03 04:46:01;;;;;;;9.57;4.65;;;11.80;99.90;;;;;;5007395;28;20038;-79
2023/06/03 04:48:27;;;;;;;9.15;4.53;;;12.00;99.90;;;;;;4988295;28;20083;-79
2023/06/03 04:50:53;;;;;;;11.27;4.28;;;12.10;99.90;;;;;;5004018;28;20559;-79
2023/06/03 04:53:19;;;;;;;8.90;3.95;;;12.40;99.90;;;;;;5020360;28;20116;-79
2023/06/03 04:55:45;;;;;;;6.93;3.90;;;12.60;99.90;;;;;;5018622;28;20393;-79
2023/06/03 04:58:11;;;;;;;6.95;4.13;;;12.80;99.90;;;;;;5005420;28;20029;-79
2023/06/03 05:00:36;;;;;;;5.32;4.03;;;13.00;99.90;;;;;;5022495;28;20549;-79
2023/06/03 05:03:08;;;;;;;9.43;3.72;;;13.20;99.90;;;;;;5017870;28;20164;-79
2023/06/03 05:05:34;;;;;;;8.25;3.50;;;13.30;99.90;;;;;;5021024;28;20143;-79
2023/06/03 05:07:59;;;;;;;5.88;4.00;;;13.50;99.90;;;;;;5018743;28;20045;-79
2023/06/03 05:10:25;;;;;;;10.45;3.53;;;13.70;99.90;;;;;;5021728;28;20033;-79
2023/06/03 05:12:51;;;;;;;9.13;3.53;;;14.00;99.90;;;;;;5024162;28;20032;-79
2023/06/03 05:15:16;;;;;;;5.18;3.60;;;14.20;99.90;;;;;;5007266;28;20063;-79
2023/06/03 05:17:42;;;;;;;7.07;3.08;;;14.40;99.90;;;;;;5003218;28;20041;-79
2023/06/03 05:20:09;;;;;;;5.53;2.75;;;14.50;99.60;;;;;;5008123;28;20033;-79
2023/06/03 05:22:35;;;;;;;5.78;2.65;;;14.60;99.40;;;;;;5003852;28;20267;-77
2023/06/03 05:25:02;;;;;;;8.25;2.95;;;14.70;99.20;;;;;;5006610;28;20064;-77
2023/06/03 05:27:28;;;;;;;3.75;2.45;;;14.90;98.60;;;;;;5022285;28;20120;-76
2023/06/03 05:29:53;;;;;;;6.72;3.05;;;15.10;97.80;;;;;;5006500;28;20129;-78
2023/06/03 05:32:19;;;;;;;4.13;2.60;;;15.30;97.10;;;;;;4990000;28;20666;-78
2023/06/03 05:34:44;;;;;;;3.92;2.70;;;15.50;96.70;;;;;;5024129;28;20025;-78
2023/06/03 05:37:10;;;;;;;10.60;2.78;;;15.70;96.00;;;;;;5023182;28;20578;-78
2023/06/03 05:39:36;;;;;;;10.30;3.83;;;15.80;95.30;;;;;;5020599;28;20159;-78
2023/06/03 05:42:01;;;;;;;7.28;2.25;;;16.00;94.40;;;;;;5020617;28;20449;-79
2023/06/03 05:44:27;;;;;;;6.22;2.05;;;16.20;93.40;;;;;;5024563;28;20488;-76
2023/06/03 05:46:52;;;;;;;3.53;2.25;;;16.40;93.30;;;;;;5006930;28;20048;-78
2023/06/03 05:49:19;;;;;;;7.25;2.90;;;16.60;91.90;;;;;;5007870;28;20041;-77
2023/06/03 05:51:44;;;;;;;3.42;1.95;;;16.80;89.60;;;;;;5022791;28;20034;-77
2023/06/03 05:54:10;;;;;;;5.80;1.85;;;17.00;88.70;;;;;;4991612;28;20033;-78
2023/06/03 05:56:35;;;;;;;6.05;1.92;;;17.00;87.70;;;;;;5006997;28;20034;-78
2023/06/03 05:59:01;;;;;;;4.10;2.20;;;17.20;85.90;;;;;;5003004;28;20029;-78
2023/06/03 06:01:26;;;;;;;8.93;2.30;;;17.30;83.70;;;;;;5023212;28;20040;-78
2023/06/03 06:03:52;;;;;;;6.80;2.20;;;17.50;84.10;;;;;;5023814;28;20037;-78
2023/06/03 06:06:18;;;;;;;4.03;2.10;;;17.70;82.80;;;;;;4991657;28;20044;-78
2023/06/03 06:08:43;;;;;;;3.85;2.33;;;17.90;81.00;;;;;;5021483;28;20033;-77
2023/06/03 06:11:10;;;;;;;5.60;1.83;;;18.00;80.80;;;;;;5007509;28;20596;-77
2023/06/03 06:13:35;;;;;;;5.32;1.65;;;18.10;80.40;;;;;;5023761;28;20025;-77
2023/06/03 06:16:02;;;;;;;3.45;1.83;;;18.30;79.10;;;;;;5007729;28;20037;-77
2023/06/03 06:18:29;;;;;;;5.68;1.60;;;18.50;78.70;;;;;;5020110;28;20087;-76
2023/06/03 06:20:55;;;;;;;3.67;1.85;;;18.70;76.90;;;;;;5020977;28;20076;-76
2023/06/03 06:23:20;;;;;;;4.75;1.55;;;18.80;75.80;;;;;;5022494;28;20481;-77
2023/06/03 06:25:49;;;;;;;2.83;1.50;;;19.00;74.70;;;;;;5015259;28;20042;-77
2023/06/03 06:28:17;;;;;;;3.67;1.60;;;19.30;73.40;;;;;;5022599;28;20389;-77
2023/06/03 06:30:44;;;;;;;5.40;1.63;;;19.30;70.90;;;;;;4999690;28;20412;-77
2023/06/03 06:33:09;;;;;;;5.85;1.75;;;19.40;71.90;;;;;;4989485;28;20037;-77
2023/06/03 06:35:35;;;;;;;5.82;2.40;;;19.50;71.10;;;;;;5022833;28;20099;-76
2023/06/03 06:38:01;;;;;;;4.10;2.08;;;19.70;71.90;;;;;;5023897;28;20099;-77
2023/06/03 06:40:31;;;;;;;2.45;1.15;;;19.80;69.10;;;;;;5019950;28;20045;-77
2023/06/03 06:42:57;;;;;;;4.00;1.42;;;20.00;68.30;;;;;;5003765;28;20381;-75
2023/06/03 06:45:25;;;;;;;7.07;1.98;;;20.10;69.80;;;;;;5002543;28;20033;-76
2023/06/03 06:47:56;;;;;;;6.25;1.50;;;20.20;68.20;;;;;;5020984;28;20465;-76
2023/06/03 06:50:53;;;;;;;3.33;1.15;;;20.50;66.70;;;;;;5014051;28;20416;-76
2023/06/03 06:53:19;;;;;;;3.28;1.27;;;20.70;64.80;;;;;;5021578;28;20877;-76
2023/06/03 06:55:52;;;;;;;10.45;1.67;;;20.80;63.40;;;;;;5018995;28;20091;-75
2023/06/03 06:58:18;;;;;;;3.83;1.27;;;20.80;65.50;;;;;;5022812;28;20037;-76
2023/06/03 07:00:43;;;;;;;3.90;1.42;;;20.90;64.50;;;;;;5020952;28;20033;-78
2023/06/03 07:03:09;;;;;;;5.43;1.73;;;21.20;63.60;;;;;;5007068;28;20030;-77
2023/06/03 07:05:35;;;;;;;3.42;1.75;;;21.40;64.80;;;;;;5022141;28;20040;-77
2023/06/03 07:08:01;;;;;;;2.83;1.45;;;21.50;63.40;;;;;;5003390;28;20041;-76
2023/06/03 07:10:27;;;;;;;3.88;1.60;;;21.60;61.10;;;;;;5005377;28;20037;-76
2023/06/03 07:12:53;;;;;;;3.65;1.42;;;21.80;59.30;;;;;;5020308;28;20489;-76
2023/06/03 07:15:19;;;;;;;2.83;1.17;;;21.90;59.60;;;;;;5023046;28;20245;-76
2023/06/03 07:17:54;;;;;;;15.75;1.33;;;22.10;58.70;;;;;;5021140;28;20033;-77
2023/06/03 07:20:22;;;;;;;3.63;1.20;;;22.20;58.60;;;;;;5002353;28;20061;-76
2023/06/03 07:22:48;;;;;;;1.92;1.10;;;22.20;59.50;;;;;;5021563;28;20041;-76
2023/06/03 07:25:32;;;;;;;2.65;1.00;;;22.50;58.20;;;;;;5020896;28;20537;-77
2023/06/03 07:27:58;;;;;;;2.78;1.13;;;22.50;57.40;;;;;;5019731;28;20045;-76
2023/06/03 07:30:24;;;;;;;3.83;1.10;;;22.60;56.80;;;;;;5020665;28;20037;-76
2023/06/03 07:32:55;;;;;;;2.35;1.20;;;22.80;57.00;;;;;;5019081;28;20034;-77
2023/06/03 07:35:20;;;;;;;2.35;1.05;;;22.90;55.80;;;;;;4984203;28;20033;-76
2023/06/03 07:37:46;;;;;;;2.47;1.27;;;22.90;55.50;;;;;;5019116;28;20041;-76
2023/06/03 07:40:15;;;;;;;3.38;1.05;;;23.00;54.50;;;;;;5020791;28;20107;-77
2023/06/03 07:42:45;;;;;;;2.00;0.93;;;23.00;55.20;;;;;;5023658;28;20029;-76
2023/06/03 07:45:14;;;;;;;3.35;1.55;;;23.00;54.80;;;;;;5005772;28;20453;-76
2023/06/03 07:47:40;;;;;;;4.75;1.00;;;23.20;54.60;;;;;;5002789;28;20180;-76
2023/06/03 07:50:23;;;;;;;2.17;0.98;;;23.30;53.30;;;;;;4985418;28;20068;-76
2023/06/03 07:52:51;;;;;;;1.67;1.20;;;23.30;52.90;;;;;;5004412;28;20033;-76
2023/06/03 07:55:16;;;;;;;4.68;1.00;;;23.30;52.60;;;;;;5021588;28;20093;-76
2023/06/03 07:57:46;;;;;;;4.05;0.90;;;23.30;51.70;;;;;;5021321;28;20057;-77
2023/06/03 08:00:13;;;;;;;3.28;1.33;;;23.70;52.40;;;;;;5019323;28;20036;-75
2023/06/03 08:02:39;;;;;;;3.90;0.85;;;23.80;50.80;;;;;;5002045;28;20044;-76
2023/06/03 08:05:05;;;;;;;2.85;1.00;;;23.80;50.40;;;;;;5020415;28;20030;-75
2023/06/03 08:07:31;;;;;;;3.60;1.30;;;23.90;51.70;;;;;;4999337;28;20501;-76
2023/06/03 08:09:57;;;;;;;1.58;1.00;;;23.90;50.50;;;;;;5008175;28;20060;-76
2023/06/03 08:12:33;;;;;;;3.70;1.13;;;24.00;52.60;;;;;;5003555;28;20111;-77
2023/06/03 08:15:00;;;;;;;2.13;0.80;;;24.20;50.80;;;;;;5018899;28;20531;-76
2023/06/03 08:17:43;;;;;;;1.58;0.85;;;24.30;51.20;;;;;;5020821;28;20131;-76
2023/06/03 08:20:10;;;;;;;4.93;1.17;;;24.40;51.20;;;;;;5001090;28;20033;-77
2023/06/03 08:22:42;;;;;;;1.80;0.80;;;24.50;51.70;;;;;;5004280;28;20078;-76
2023/06/03 08:25:08;;;;;;;4.45;1.10;;;24.70;52.10;;;;;;5003416;28;20030;-76
2023/06/03 08:27:34;;;;;;;4.43;1.27;;;24.80;49.90;;;;;;5018152;28;20103;-76
2023/06/03 08:30:03;;;;;;;3.05;1.25;;;24.80;50.40;;;;;;5002874;28;20576;-77
2023/06/03 08:32:29;;;;;;;3.83;1.00;;;25.00;50.10;;;;;;5001320;28;20528;-76
2023/06/03 08:34:54;;;;;;;6.03;1.00;;;24.90;49.30;;;;;;5023288;28;20098;-75
2023/06/03 08:37:20;;;;;;;2.88;0.85;;;25.00;49.60;;;;;;4987940;28;20737;-77
2023/06/03 08:39:47;;;;;;;4.25;1.27;;;25.30;49.20;;;;;;5016458;28;20034;-77
2023/06/03 08:42:13;;;;;;;4.53;1.00;;;25.30;49.30;;;;;;5004356;28;20038;-78
2023/06/03 08:44:47;;;;;;;2.53;0.70;;;25.50;48.00;;;;;;5005931;28;20052;-76
2023/06/03 08:47:15;;;;;;;2.58;0.70;;;25.30;49.30;;;;;;4991270;28;20475;-77
2023/06/03 08:49:53;;;;;;;5.00;1.23;;;25.50;48.80;;;;;;5009423;28;20057;-76
2023/06/03 08:52:19;;;;;;;3.20;1.00;;;25.70;46.10;;;;;;4992050;28;20076;-76
2023/06/03 08:54:44;;;;;;;1.95;0.75;;;25.70;48.70;;;;;;5024729;28;20033;-76
2023/06/03 08:57:18;;;;;;;4.18;1.10;;;25.80;48.50;;;;;;5006894;28;20542;-77
2023/06/03 08:59:44;;;;;;;6.40;1.35;;;25.80;46.90;;;;;;5008018;28;20493;-76
2023/06/03 09:02:12;;;;;;;2.30;0.85;;;25.80;46.90;;;;;;5023449;28;20124;-76
2023/06/03 09:04:38;;;;;;;1.42;0.85;;;25.90;47.40;;;;;;5008675;28;20029;-76
2023/06/03 09:07:04;;;;;;;4.88;1.05;;;26.00;48.30;;;;;;5004459;28;20039;-77
2023/06/03 09:09:29;;;;;;;4.47;1.00;;;26.20;47.30;;;;;;5005720;28;20053;-76
2023/06/03 09:11:55;;;;;;;2.63;1.00;;;26.20;46.40;;;;;;5021884;28;20501;-77
2023/06/03 09:14:21;;;;;;;7.28;1.25;;;26.30;46.40;;;;;;5007987;28;20026;-76
2023/06/03 09:16:46;;;;;;;3.40;1.45;;;26.40;46.20;;;;;;5019123;28;20056;-76
2023/06/03 09:19:12;;;;;;;2.58;1.30;;;26.30;43.90;;;;;;5021306;28;20106;-77
2023/06/03 09:21:39;;;;;;;4.43;1.23;;;26.50;44.70;;;;;;5023148;28;20113;-76
2023/06/03 09:24:04;;;;;;;2.80;1.02;;;26.50;46.50;;;;;;5024379;28;20544;-76
2023/06/03 09:26:30;;;;;;;3.25;1.30;;;26.60;46.60;;;;;;4993778;28;20033;-76
2023/06/03 09:28:55;;;;;;;3.05;1.10;;;26.60;44.50;;;;;;5021970;28;20026;-76
2023/06/03 09:31:22;;;;;;;3.83;1.00;;;26.80;44.90;;;;;;4989898;28;20071;-76
2023/06/03 09:33:47;;;;;;;2.33;0.80;;;26.80;45.30;;;;;;5023057;28;20034;-77
2023/06/03 09:36:15;;;;;;;3.70;0.85;;;26.80;45.70;;;;;;5022200;28;20045;-77
2023/06/03 09:38:56;;;;;;;2.75;0.98;;;26.70;47.20;;;;;;5022703;28;20060;-76
2023/06/03 09:41:25;;;;;;;6.15;1.35;;;27.00;45.20;;;;;;5005410;28;20033;-77
2023/06/03 09:44:06;;;;;;;2.55;0.95;;;27.10;44.40;;;;;;5023798;28;20028;-77
2023/06/03 09:46:32;;;;;;;3.25;1.00;;;27.00;45.10;;;;;;5021425;28;20033;-77
2023/06/03 09:49:27;;;;;;;5.72;1.05;;;27.10;44.40;;;;;;5007760;28;20088;-76
2023/06/03 09:51:52;;;;;;;3.90;1.45;;;27.20;44.10;;;;;;5017718;28;20037;-77
2023/06/03 09:54:23;;;;;;;7.13;1.05;;;27.30;44.20;;;;;;5007314;28;20121;-78
2023/06/03 09:56:48;;;;;;;2.55;1.35;;;27.40;44.60;;;;;;5003109;28;20033;-78
2023/06/03 09:59:25;;;;;;;2.88;1.33;;;27.50;44.20;;;;;;4996642;28;20036;-79
2023/06/03 10:01:54;;;;;;;4.40;1.10;;;27.40;43.50;;;;;;5005932;28;20030;-78
2023/06/03 10:04:24;;;;;;;1.70;1.05;;;27.40;44.50;;;;;;5022014;28;20030;-79
2023/06/03 10:07:05;;;;;;;5.50;1.60;;;27.50;45.10;;;;;;5019068;28;20120;-78
2023/06/03 10:09:31;;;;;;;5.88;1.42;;;27.60;44.10;;;;;;5021203;28;20444;-79
2023/06/03 10:11:57;;;;;;;4.60;1.02;;;27.70;44.00;;;;;;5022595;28;20034;-78
2023/06/03 10:14:25;;;;;;;4.90;1.27;;;27.80;43.40;;;;;;5020215;28;20033;-78
2023/06/03 10:17:07;;;;;;;2.17;1.23;;;27.70;44.40;;;;;;5020189;28;20037;-78
2023/06/03 10:19:34;;;;;;;4.30;1.17;;;27.90;42.90;;;;;;5007237;28;20038;-78
2023/06/03 10:22:00;;;;;;;2.33;1.42;;;28.00;43.40;;;;;;5019153;28;20038;-78
2023/06/03 10:24:28;;;;;;;4.72;1.02;;;28.00;43.90;;;;;;5013675;28;20801;-78
2023/06/03 10:27:00;;;;;;;4.88;1.35;;;28.10;44.30;;;;;;4992116;28;20044;-77
2023/06/03 10:29:26;;;;;;;3.72;1.23;;;28.40;43.30;;;;;;5022755;28;20029;-79
2023/06/03 10:31:53;;;;;;;2.00;0.88;;;28.20;43.50;;;;;;5021212;28;20046;-79
2023/06/03 10:34:19;;;;;;;5.70;1.05;;;28.20;43.60;;;;;;4991407;28;20061;-78
2023/06/03 10:36:51;;;;;;;3.72;1.30;;;28.40;42.60;;;;;;5019884;28;20037;-78
2023/06/03 10:39:17;;;;;;;4.95;1.23;;;28.60;42.50;;;;;;5006925;28;20486;-77
2023/06/03 10:41:42;;;;;;;1.98;0.98;;;28.60;42.10;;;;;;5023707;28;20098;-78
2023/06/03 10:44:08;;;;;;;1.13;0.93;;;28.60;44.20;;;;;;5004886;28;20385;-79
2023/06/03 10:46:34;;;;;;;4.85;1.38;;;28.70;43.10;;;;;;5022010;28;20414;-79
2023/06/03 10:49:00;;;;;;;2.85;0.88;;;28.80;41.80;;;;;;5004585;28;20036;-79
2023/06/03 10:51:50;;;;;;;2.92;1.15;;;28.90;41.90;;;;;;4990274;28;20033;-79
2023/06/03 10:54:33;;;;;;;1.45;0.90;;;29.00;40.20;;;;;;5022850;28;20944;-79
2023/06/03 10:57:05;;;;;;;1.67;0.85;;;28.90;41.40;;;;;;5019773;28;20520;-79
2023/06/03 10:59:39;;;;;;;3.30;1.10;;;29.10;41.20;;;;;;5019457;28;20053;-78
2023/06/03 11:02:05;;;;;;;4.88;1.25;;;29.00;42.30;;;;;;5006479;28;20037;-78
2023/06/03 11:04:33;;;;;;;1.80;0.95;;;29.20;40.90;;;;;;5022302;28;20036;-78
2023/06/03 11:06:58;;;;;;;7.65;1.77;;;29.30;41.00;;;;;;4993310;28;20037;-79
2023/06/03 11:09:36;;;;;;;4.50;1.20;;;29.30;41.00;;;;;;5021523;28;20176;-79
2023/06/03 11:12:13;;;;;;;4.57;1.30;;;29.40;39.30;;;;;;5002502;28;20083;-79
2023/06/03 11:14:48;;;;;;;3.28;1.10;;;29.40;38.70;;;;;;5020304;28;20044;-79
2023/06/03 11:17:18;;;;;;;4.75;1.33;;;29.40;39.70;;;;;;5028085;28;20565;-79
2023/06/03 11:19:49;;;;;;;3.20;1.63;;;29.30;39.30;;;;;;5021421;28;20033;-79
2023/06/03 11:22:27;;;;;;;3.67;1.63;;;29.20;39.90;;;;;;4983689;28;20543;-78
2023/06/03 11:24:52;;;;;;;6.80;1.20;;;29.30;40.30;;;;;;5024108;28;20493;-79
2023/06/03 11:27:18;;;;;;;8.18;1.65;;;29.40;40.50;;;;;;4989003;28;20099;-77
2023/06/03 11:29:45;;;;;;;10.60;1.58;;;29.50;39.50;;;;;;4680657;28;10000801;-78
2023/06/03 11:32:17;;;;;;;4.38;1.40;;;29.50;40.50;;;;;;4673704;28;9999597;-78
2023/06/03 11:34:43;;;;;;;7.97;1.58;;;29.50;38.50;;;;;;4986511;28;20034;-79
2023/06/03 11:37:13;;;;;;;3.40;1.40;;;29.50;41.20;;;;;;4995099;28;20036;-79
2023/06/03 11:39:58;;;;;;;3.67;1.42;;;29.80;40.70;;;;;;5001964;28;20026;-79
2023/06/03 11:42:24;;;;;;;2.80;1.40;;;29.90;40.60;;;;;;5001705;28;20041;-79
2023/06/03 11:44:49;;;;;;;5.47;1.20;;;30.10;38.80;;;;;;5017163;28;20045;-79
2023/06/03 11:47:15;;;;;;;2.97;1.50;;;30.00;39.00;;;;;;5000365;28;20056;-79
2023/06/03 11:49:40;;;;;;;2.53;1.40;;;30.20;38.60;;;;;;5016190;28;20033;-79
2023/06/03 11:52:07;;;;;;;6.00;1.15;;;30.30;40.10;;;;;;5018162;28;20044;-79
2023/06/03 11:54:37;;;;;;;3.13;1.65;;;30.50;40.10;;;;;;5002196;28;20044;-79
2023/06/03 11:57:03;;;;;;;2.58;1.25;;;30.60;37.70;;;;;;4994354;28;20521;-78
2023/06/03 11:59:35;;;;;;;3.42;1.40;;;30.60;39.80;;;;;;5015444;28;20052;-78
2023/06/03 12:02:06;;;;;;;8.05;1.77;;;30.70;39.30;;;;;;4985120;28;20025;-79
2023/06/03 12:04:33;;;;;;;2.80;1.25;;;30.80;38.10;;;;;;5019100;28;20044;-79
2023/06/03 12:06:59;;;;;;;3.78;1.30;;;30.80;39.80;;;;;;5017052;28;20803;-78
2023/06/03 12:09:26;;;;;;;5.78;1.50;;;31.00;38.20;;;;;;4998970;28;20113;-79
2023/06/03 12:11:54;;;;;;;3.67;1.05;;;31.00;37.30;;;;;;5016643;28;20112;-79
2023/06/03 12:14:26;;;;;;;5.05;1.50;;;30.90;38.70;;;;;;4985219;28;20044;-79
2023/06/03 12:16:54;;;;;;;5.80;1.33;;;31.20;36.60;;;;;;5016902;28;20496;-79
2023/06/03 12:19:20;;;;;;;3.67;1.30;;;31.00;37.50;;;;;;5002194;28;20052;-79
2023/06/03 12:21:54;;;;;;;5.45;1.30;;;31.10;36.80;;;;;;4997694;28;20045;-79
2023/06/03 12:24:19;;;;;;;3.35;1.30;;;31.00;36.10;;;;;;5002435;28;20042;-79
2023/06/03 12:26:45;;;;;;;3.50;1.48;;;31.00;37.10;;;;;;5014587;28;20045;-78
2023/06/03 12:29:12;;;;;;;4.00;1.17;;;31.00;37.90;;;;;;5000600;28;20180;-77
2023/06/03 12:31:37;;;;;;;4.60;1.75;;;31.20;38.30;;;;;;5003558;28;20607;-77
2023/06/03 12:34:03;;;;;;;4.72;1.60;;;31.30;38.00;;;;;;4999091;28;20061;-78
2023/06/03 12:36:45;;;;;;;7.05;1.52;;;31.40;35.70;;;;;;5018390;28;20401;-78
2023/06/03 12:39:11;;;;;;;3.10;1.10;;;31.30;36.00;;;;;;5019785;28;20568;-77
2023/06/03 12:41:37;;;;;;;3.45;1.25;;;31.30;36.50;;;;;;5018353;28;20064;-78
2023/06/03 12:44:03;;;;;;;3.25;1.25;;;31.30;36.10;;;;;;5016964;28;20392;-79
2023/06/03 12:46:30;;;;;;;3.58;1.45;;;31.30;36.10;;;;;;5016268;28;20038;-79